Big Bear Station Historical Data
Daily Summary for October 9, 2017 Units:  English    Metric   Both
« Previous Day
Next Day »
Daily Weekly Monthly Yearly Custom
  High: Low: Average:
Temperature: 58.8 °F 33.4 °F 44.5 °F
Dew Point: 30.9 °F 4.6 °F 14.9 °F
Humidity: 57 % 12 % 33 %
Wind Speed: 7.3 mph 0.0 mph 1.5 mph
Wind Gust: -999.0 mph - -
Wind:- - SSW
Pressure: 30.20 in 23.55 in -
Precipitation: 0.00 in    
Historical Graphs
 
 
Tabular Data for October 9, 2017
Time Temperature Dew Point Pressure Wind Wind Speed Wind Gust Humidity Rainfall Rate (Hourly)
00:00 49.6 °F 26.9 °F 30.04 in Calm   -999.0 mph 41 % 0 in
00:16 48.9 °F 26.2 °F 30.05 in Calm   -999.0 mph 41 % 0 in
00:31 47.8 °F 27.5 °F 30.05 in Calm   -999.0 mph 45 % 0 in
00:46 47.7 °F 30.9 °F 30.06 in WNW 4.2 mph -999.0 mph 52 % 0 in
01:02 47.3 °F 30.1 °F 30.06 in SSW 1.7 mph -999.0 mph 51 % 0 in
01:17 46.0 °F 29.8 °F 30.06 in Calm   -999.0 mph 53 % 0 in
01:33 45.3 °F 29.2 °F 30.07 in Calm   -999.0 mph 53 % 0 in
01:48 45.1 °F 29.9 °F 30.07 in Calm   -999.0 mph 55 % 0 in
02:03 45.1 °F 29.9 °F 30.07 in Calm   -999.0 mph 55 % 0 in
02:18 44.4 °F 29.7 °F 30.07 in Calm   -999.0 mph 56 % 0 in
02:33 43.5 °F 29.3 °F 30.08 in Calm   -999.0 mph 57 % 0 in
02:49 42.8 °F 25.9 °F 30.08 in SW 1.1 mph -999.0 mph 51 % 0 in
03:04 42.4 °F 24.6 °F 30.08 in NE 2.2 mph -999.0 mph 49 % 0 in
03:19 42.1 °F 23.3 °F 30.08 in NE 1.1 mph -999.0 mph 47 % 0 in
03:34 41.4 °F 23.2 °F 30.09 in Calm   -999.0 mph 48 % 0 in
03:49 40.8 °F 20.0 °F 30.09 in Calm   -999.0 mph 43 % 0 in
04:05 40.6 °F 18.1 °F 30.09 in ENE 2.2 mph -999.0 mph 40 % 0 in
04:20 40.5 °F 16.9 °F 30.09 in SSW 1.7 mph -999.0 mph 38 % 0 in
04:35 40.1 °F 17.1 °F 30.10 in Calm   -999.0 mph 39 % 0 in
04:50 39.4 °F 16.5 °F 30.10 in Calm   -999.0 mph 39 % 0 in
05:06 39.2 °F 15.7 °F 30.10 in Calm   -999.0 mph 38 % 0 in
05:21 38.8 °F 15.9 °F 30.11 in NW 5.3 mph -999.0 mph 39 % 0 in
05:36 38.5 °F 17.4 °F 30.12 in WNW 2.2 mph -999.0 mph 42 % 0 in
05:51 38.1 °F 17.0 °F 30.12 in NNW 3.2 mph -999.0 mph 42 % 0 in
06:06 37.6 °F 16.0 °F 30.13 in Calm   -999.0 mph 41 % 0 in
06:22 36.7 °F 16.3 °F 30.13 in Calm   -999.0 mph 43 % 0 in
06:37 35.8 °F 16.0 °F 30.13 in Calm   -999.0 mph 44 % 0 in
06:52 35.2 °F 16.5 °F 30.13 in Calm   -999.0 mph 46 % 0 in
07:22 36.5 °F 13.3 °F 30.14 in Calm   -999.0 mph 38 % 0 in
07:38 37.2 °F 12.7 °F 30.14 in Calm   -999.0 mph 36 % 0 in
07:53 37.9 °F 12.0 °F 30.15 in NE 4.2 mph -999.0 mph 34 % 0 in
08:08 38.8 °F 12.1 °F 30.15 in SSE 3.2 mph -999.0 mph 33 % 0 in
08:24 39.2 °F 11.8 °F 30.16 in WNW 3.7 mph -999.0 mph 32 % 0 in
08:39 39.9 °F 11.7 °F 30.16 in SSW 1.7 mph -999.0 mph 31 % 0 in
08:54 41.0 °F 11.9 °F 30.16 in Calm   -999.0 mph 30 % 0 in
09:09 41.9 °F 12.7 °F 30.16 in Calm   -999.0 mph 30 % 0 in
09:24 43.9 °F 12.0 °F 30.16 in NNW 2.7 mph -999.0 mph 27 % 0 in
09:40 44.8 °F 12.8 °F 30.17 in ENE 1.7 mph -999.0 mph 27 % 0 in
09:55 45.1 °F 13.9 °F 30.17 in NW 5.8 mph -999.0 mph 28 % 0 in
10:11 45.9 °F 13.8 °F 30.17 in SSW 3.2 mph -999.0 mph 27 % 0 in
10:26 47.3 °F 13.2 °F 30.17 in NE 4.2 mph -999.0 mph 25 % 0 in
10:42 48.9 °F 10.6 °F 30.17 in NNW 2.2 mph -999.0 mph 21 % 0 in
10:57 50.7 °F 9.9 °F 30.17 in WNW 3.2 mph -999.0 mph 19 % 0 in
11:12 51.6 °F 9.4 °F 30.17 in NNW 6.3 mph -999.0 mph 18 % 0 in
11:27 53.6 °F 8.4 °F 30.17 in North 2.2 mph -999.0 mph 16 % 0 in
11:42 54.0 °F 8.8 °F 30.18 in NNW 2.2 mph -999.0 mph 16 % 0 in
11:58 55.4 °F 8.5 °F 30.17 in NE 3.7 mph -999.0 mph 15 % 0 in
12:28 55.9 °F 7.3 °F 30.18 in NW 7.3 mph -999.0 mph 14 % 0 in
12:44 56.7 °F 4.6 °F 30.17 in NE 3.7 mph -999.0 mph 12 % 0 in
12:59 57.9 °F 5.5 °F 30.17 in NNE 2.7 mph -999.0 mph 12 % 0 in
13:30 57.9 °F 5.5 °F 30.16 in NNE 5.3 mph -999.0 mph 12 % 0 in
13:45 57.2 °F 11.4 °F 30.16 in South 3.7 mph -999.0 mph 16 % 0 in
14:00 58.8 °F 9.7 °F 30.15 in NNW 1.7 mph -999.0 mph 14 % 0 in
14:15 56.7 °F 8.0 °F 30.15 in ESE 1.7 mph -999.0 mph 14 % 0 in
14:30 56.8 °F 8.1 °F 30.15 in NNE 2.7 mph -999.0 mph 14 % 0 in
14:46 56.3 °F 13.3 °F 30.15 in West 2.2 mph -999.0 mph 18 % 0 in
15:01 55.9 °F 13.0 °F 30.15 in NW 3.7 mph -999.0 mph 18 % 0 in
15:16 55.6 °F 12.7 °F 30.15 in NE 2.7 mph -999.0 mph 18 % 0 in
15:31 55.4 °F 13.8 °F 30.15 in NW 4.7 mph -999.0 mph 19 % 0 in
15:46 54.3 °F 14.0 °F 30.15 in East 2.2 mph -999.0 mph 20 % 0 in
16:02 54.1 °F 11.5 °F 30.15 in WNW 1.1 mph -999.0 mph 18 % 0 in
16:17 53.8 °F 12.5 °F 30.15 in Calm   -999.0 mph 19 % 0 in
16:32 53.2 °F 10.7 °F 30.15 in Calm   -999.0 mph 18 % 0 in
17:03 52.3 °F 11.2 °F 30.15 in WNW 2.7 mph -999.0 mph 19 % 0 in
17:33 50.4 °F 11.9 °F 30.15 in Calm   -999.0 mph 21 % 0 in
17:48 49.1 °F 11.8 °F 30.16 in WSW 2.7 mph -999.0 mph 22 % 0 in
18:03 47.8 °F 11.8 °F 30.16 in Calm   -999.0 mph 23 % 0 in
18:19 46.6 °F 10.7 °F 30.16 in Calm   -999.0 mph 23 % 0 in
18:34 45.0 °F 10.3 °F 30.17 in Calm   -999.0 mph 24 % 0 in
18:49 43.7 °F 10.1 °F 30.17 in Calm   -999.0 mph 25 % 0 in
19:04 42.3 °F 8.9 °F 30.18 in Calm   -999.0 mph 25 % 0 in
19:19 41.0 °F 8.7 °F 30.18 in Calm   -999.0 mph 26 % 0 in
19:35 40.5 °F 8.3 °F 30.18 in Calm   -999.0 mph 26 % 0 in
19:50 39.6 °F 8.3 °F 30.19 in Calm   -999.0 mph 27 % 0 in
20:05 39.2 °F 10.3 °F 30.19 in Calm   -999.0 mph 30 % 0 in
20:20 38.3 °F 14.9 °F 23.55 in Calm   -999.0 mph 38 % 0 in
20:35 37.9 °F 14.5 °F 30.19 in Calm   -999.0 mph 38 % 0 in
20:51 37.6 °F 14.3 °F 30.19 in SW 2.2 mph -999.0 mph 38 % 0 in
21:06 37.2 °F 14.5 °F 30.20 in Calm   -999.0 mph 39 % 0 in
21:21 37.0 °F 14.3 °F 30.20 in Calm   -999.0 mph 39 % 0 in
21:36 36.9 °F 13.6 °F 30.20 in Calm   -999.0 mph 38 % 0 in
21:52 36.3 °F 13.1 °F 30.20 in Calm   -999.0 mph 38 % 0 in
22:07 36.0 °F 13.4 °F 30.20 in South 1.7 mph -999.0 mph 39 % 0 in
22:22 36.0 °F 13.4 °F 30.20 in South 1.1 mph -999.0 mph 39 % 0 in
22:37 35.8 °F 12.6 °F 30.20 in South 1.1 mph -999.0 mph 38 % 0 in
22:52 35.2 °F 12.1 °F 30.20 in Calm   -999.0 mph 38 % 0 in
23:08 34.9 °F 12.4 °F 30.19 in Calm   -999.0 mph 39 % 0 in
23:23 34.3 °F 12.5 °F 30.19 in Calm   -999.0 mph 40 % 0 in
23:38 33.8 °F 13.1 °F 30.19 in Calm   -999.0 mph 42 % 0 in
23:53 33.4 °F 13.8 °F 30.19 in Calm   -999.0 mph 44 % 0 in
Big Bear CA Weather
Compliments of Weather Underground - 1.5 mb